Terminal Aerodrome Forecast
Issued by NWS Mt. Holly, NJ

Home | Current Version | Previous Version | Text Only | Print | Product List | Glossary On
Versions: 1 2 3 4 5 6 7 8 9 10 11 12 13 14 15 16 17 18 19 20 21 22 23 24 25 26 27 28 29 30 31 32
000
FTUS41 KPHI 141748
TAFPHL
TAF
KPHL 141748Z 1418/1524 30011G23KT P6SM SKC
     FM142200 31010KT P6SM BKN250
     FM150700 VRB04KT P6SM BKN150
     FM152000 21005KT P6SM OVC035 PROB30 1520/1523 3SM -SHSN OVC025
     FM152300 25007KT P6SM SCT030 BKN080=

USA.gov is the U.S. government's official web portal to all federal, state and local government web resources and services.